createdAt,value
2023-04-10T00:00:15.632Z,8.77
2023-04-10T00:03:18.059Z,8.37
2023-04-10T00:06:20.368Z,7.60
2023-04-10T00:09:22.552Z,8.23
2023-04-10T00:15:47.663Z,8.63
2023-04-10T00:18:49.089Z,8.77
2023-04-10T00:21:51.000Z,8.73
2023-04-10T00:24:52.814Z,8.80
2023-04-10T00:27:54.751Z,8.23
2023-04-10T00:30:56.513Z,8.87
2023-04-10T00:33:58.351Z,8.63
2023-04-10T00:37:01.054Z,8.73
2023-04-10T00:40:02.935Z,9.40
2023-04-10T00:43:04.757Z,8.03
2023-04-10T00:46:09.615Z,9.43
2023-04-10T00:49:11.746Z,8.80
2023-04-10T00:52:13.617Z,9.03
2023-04-10T00:55:16.053Z,8.90
2023-04-10T00:58:18.113Z,8.90
2023-04-10T01:01:20.738Z,9.17
2023-04-10T01:04:28.991Z,9.60
2023-04-10T01:07:49.917Z,9.63
2023-04-10T01:11:11.162Z,8.83
2023-04-10T01:14:19.550Z,8.70
2023-04-10T01:18:06.223Z,8.67
2023-04-10T01:21:11.710Z,8.70
2023-04-10T01:25:04.706Z,8.43
2023-04-10T01:28:19.287Z,8.67
2023-04-10T01:31:30.123Z,8.93
2023-04-10T01:34:56.812Z,8.47
2023-04-10T01:38:05.339Z,8.73
2023-04-10T01:41:08.010Z,9.07
2023-04-10T01:44:14.715Z,8.10
2023-04-10T01:47:18.267Z,8.90
2023-04-10T01:50:24.206Z,8.87
2023-04-10T01:53:26.908Z,8.50
2023-04-10T01:56:28.798Z,8.07
2023-04-10T01:59:31.275Z,8.30
2023-04-10T02:02:34.334Z,8.83
2023-04-10T02:06:02.334Z,7.90
2023-04-10T02:09:31.571Z,8.60
2023-04-10T02:12:41.576Z,8.00
2023-04-10T02:15:47.216Z,8.20
2023-04-10T02:18:50.560Z,8.40
2023-04-10T02:21:53.516Z,8.97
2023-04-10T02:24:56.775Z,8.73
2023-04-10T02:27:59.042Z,8.73
2023-04-10T02:31:00.623Z,8.70
2023-04-10T02:34:02.538Z,8.03
2023-04-10T02:37:04.351Z,8.80
2023-04-10T02:40:06.841Z,8.80
2023-04-10T02:43:18.161Z,9.20
2023-04-10T02:46:21.119Z,8.67
2023-04-10T02:49:22.932Z,8.37
2023-04-10T02:52:25.984Z,8.80
2023-04-10T02:55:28.895Z,8.07
2023-04-10T02:58:51.819Z,8.60
2023-04-10T03:01:53.971Z,8.53
2023-04-10T03:04:55.988Z,8.60
2023-04-10T03:07:58.233Z,8.57
2023-04-10T03:11:00.465Z,8.43
2023-04-10T03:14:04.047Z,8.93
2023-04-10T03:17:05.665Z,8.33
2023-04-10T03:20:10.293Z,8.07
2023-04-10T03:23:12.204Z,8.33
2023-04-10T03:26:14.013Z,8.50
2023-04-10T03:29:18.861Z,8.37
2023-04-10T03:32:20.818Z,8.57
2023-04-10T03:35:46.518Z,7.90
2023-04-10T03:38:48.376Z,8.27
2023-04-10T03:41:50.193Z,8.50
2023-04-10T03:44:52.728Z,8.47
2023-04-10T03:47:55.905Z,8.70
2023-04-10T03:50:58.599Z,9.23
2023-04-10T03:54:00.180Z,8.60
2023-04-10T03:57:02.836Z,9.20
2023-04-10T04:00:05.827Z,8.77
2023-04-10T04:03:21.810Z,8.50
2023-04-10T04:06:23.818Z,9.93
2023-04-10T04:09:47.887Z,9.30
2023-04-10T04:13:08.166Z,8.27
2023-04-10T04:16:27.359Z,8.87
2023-04-10T04:19:52.383Z,8.90
2023-04-10T04:23:06.392Z,9.63
2023-04-10T04:26:36.789Z,8.73
2023-04-10T04:29:58.879Z,8.73
2023-04-10T04:33:18.362Z,9.33
2023-04-10T04:36:52.352Z,9.33
2023-04-10T04:40:00.144Z,8.63
2023-04-10T04:43:21.513Z,9.17
2023-04-10T04:46:36.674Z,8.67
2023-04-10T04:50:06.029Z,8.53
2023-04-10T04:53:25.806Z,8.40
2023-04-10T04:57:07.074Z,8.80
2023-04-10T05:00:31.031Z,8.63
2023-04-10T05:03:39.848Z,8.73
2023-04-10T05:07:04.831Z,7.90
2023-04-10T05:10:13.763Z,8.40
2023-04-10T05:13:44.092Z,9.07
2023-04-10T05:17:09.799Z,8.77
2023-04-10T05:20:21.730Z,8.33
2023-04-10T05:23:46.436Z,8.23
2023-04-10T05:27:12.650Z,9.00
2023-04-10T05:30:38.363Z,9.10
2023-04-10T05:33:58.588Z,8.17
2023-04-10T05:37:12.939Z,9.07
2023-04-10T05:40:21.316Z,9.10
2023-04-10T05:43:45.656Z,9.17
2023-04-10T05:46:59.054Z,9.07
2023-04-10T05:50:18.221Z,9.00
2023-04-10T05:53:34.173Z,8.63
2023-04-10T05:57:02.234Z,8.87
2023-04-10T06:00:19.535Z,8.70
2023-04-10T06:03:44.251Z,9.70
2023-04-10T06:06:46.917Z,8.50
2023-04-10T06:09:48.319Z,9.33
2023-04-10T06:12:50.134Z,8.50
2023-04-10T06:15:52.082Z,8.27
2023-04-10T06:18:54.590Z,8.40
2023-04-10T06:21:56.623Z,9.60
2023-04-10T06:24:58.930Z,9.23
2023-04-10T06:28:01.247Z,8.73
2023-04-10T06:31:04.169Z,9.03
2023-04-10T06:34:09.654Z,8.47
2023-04-10T06:37:27.629Z,9.13
2023-04-10T06:40:30.840Z,8.63
2023-04-10T06:43:34.639Z,8.87
2023-04-10T06:46:36.856Z,8.80
2023-04-10T06:49:38.655Z,8.10
2023-04-10T06:52:40.421Z,8.73
2023-04-10T06:55:41.849Z,8.83
2023-04-10T06:58:43.216Z,8.30
2023-04-10T07:01:45.002Z,8.63
2023-04-10T07:04:49.879Z,8.37
2023-04-10T07:07:52.058Z,8.70
2023-04-10T07:10:53.822Z,8.50
2023-04-10T07:13:58.331Z,8.87
2023-04-10T07:17:00.166Z,8.23
2023-04-10T07:20:02.296Z,8.37
2023-04-10T07:23:04.292Z,8.73
2023-04-10T07:26:06.526Z,8.90
2023-04-10T07:29:09.399Z,8.70
2023-04-10T07:32:11.370Z,8.30
2023-04-10T07:35:13.320Z,8.37
2023-04-10T07:38:15.134Z,8.27
2023-04-10T07:41:16.965Z,7.70
2023-04-10T07:44:20.224Z,7.83
2023-04-10T07:47:21.644Z,7.87
2023-04-10T07:50:26.136Z,7.60
2023-04-10T07:53:28.082Z,8.53
2023-04-10T07:56:31.683Z,8.17
2023-04-10T07:59:33.096Z,8.03
2023-04-10T08:02:38.532Z,7.60
2023-04-10T08:05:40.434Z,7.20
2023-04-10T08:08:42.637Z,7.47
2023-04-10T08:11:44.627Z,7.17
2023-04-10T08:14:46.009Z,7.13
2023-04-10T08:17:51.002Z,7.20
2023-04-10T08:20:52.950Z,6.40
2023-04-10T08:23:56.939Z,6.60
2023-04-10T08:26:58.824Z,6.13
2023-04-10T08:30:00.597Z,6.60
2023-04-10T08:33:02.467Z,6.40
2023-04-10T08:36:27.023Z,6.33
2023-04-10T08:39:28.859Z,6.53
2023-04-10T08:42:32.207Z,5.90
2023-04-10T08:45:35.323Z,6.40
2023-04-10T08:48:53.064Z,6.23
2023-04-10T08:52:02.161Z,5.90
2023-04-10T08:55:08.004Z,6.40
2023-04-10T08:58:11.362Z,5.97
2023-04-10T09:01:13.782Z,5.73
2023-04-10T09:04:19.718Z,5.20
2023-04-10T09:07:25.824Z,4.80
2023-04-10T09:10:30.141Z,5.50
2023-04-10T09:13:54.269Z,4.30
2023-04-10T09:17:19.275Z,4.83
2023-04-10T09:20:23.077Z,4.90
2023-04-10T09:23:25.028Z,4.67
2023-04-10T09:26:31.130Z,4.67
2023-04-10T09:29:49.931Z,4.33
2023-04-10T09:32:51.811Z,4.57
2023-04-10T09:35:57.220Z,4.60
2023-04-10T09:38:59.022Z,4.70
2023-04-10T09:42:00.923Z,4.90
2023-04-10T09:45:04.470Z,4.60
2023-04-10T09:48:08.210Z,5.03
2023-04-10T09:51:29.770Z,5.07
2023-04-10T09:54:38.374Z,5.07
2023-04-10T09:57:39.902Z,5.03
2023-04-10T10:00:44.371Z,4.83
2023-04-10T10:03:46.668Z,4.60
2023-04-10T10:06:49.093Z,4.90
2023-04-10T10:09:52.066Z,4.47
2023-04-10T10:13:01.672Z,4.90
2023-04-10T10:16:06.702Z,4.13
2023-04-10T10:19:41.118Z,4.40
2023-04-10T10:22:43.033Z,4.40
2023-04-10T10:25:46.169Z,4.50
2023-04-10T10:28:48.549Z,4.60
2023-04-10T10:31:51.015Z,4.97
2023-04-10T10:34:53.666Z,4.87
2023-04-10T10:37:55.595Z,4.73
2023-04-10T10:41:09.047Z,4.27
2023-04-10T10:44:23.176Z,4.33
2023-04-10T10:47:29.313Z,4.50
2023-04-10T10:50:53.567Z,4.27
2023-04-10T10:53:55.749Z,4.00
2023-04-10T10:56:57.342Z,3.90
2023-04-10T10:59:58.790Z,4.00
2023-04-10T11:03:20.686Z,3.27
2023-04-10T11:06:50.145Z,3.63
2023-04-10T11:09:55.160Z,3.67
2023-04-10T11:13:17.663Z,3.30
2023-04-10T11:16:21.207Z,3.43
2023-04-10T11:19:25.723Z,3.60
2023-04-10T11:22:27.913Z,3.43
2023-04-10T11:25:54.072Z,3.50
2023-04-10T11:28:56.719Z,3.30
2023-04-10T11:32:04.267Z,3.47
2023-04-10T11:35:09.113Z,3.00
2023-04-10T11:38:16.172Z,3.23
2023-04-10T11:41:18.005Z,3.13
2023-04-10T11:44:26.745Z,3.13
2023-04-10T11:47:28.407Z,2.87
2023-04-10T11:50:32.169Z,3.20
2023-04-10T11:53:34.120Z,3.40
2023-04-10T11:56:37.948Z,3.23
2023-04-10T11:59:39.349Z,3.07
2023-04-10T12:02:52.548Z,2.87
2023-04-10T12:05:54.556Z,2.87
2023-04-10T12:08:56.816Z,2.97
2023-04-10T12:12:04.075Z,2.87
2023-04-10T12:15:26.317Z,2.60
2023-04-10T12:18:29.703Z,2.80
2023-04-10T12:21:32.679Z,3.00
2023-04-10T12:24:50.646Z,2.60
2023-04-10T12:27:52.925Z,2.90
2023-04-10T12:30:55.230Z,2.43
2023-04-10T12:33:58.114Z,2.47
2023-04-10T12:36:59.940Z,2.63
2023-04-10T12:40:07.966Z,2.50
2023-04-10T12:43:10.222Z,2.40
2023-04-10T12:46:26.410Z,2.83
2023-04-10T12:49:28.449Z,2.50
2023-04-10T12:52:30.443Z,2.40
2023-04-10T12:55:32.823Z,2.40
2023-04-10T12:58:34.279Z,2.40
2023-04-10T13:01:39.671Z,2.10
2023-04-10T13:04:42.628Z,2.07
2023-04-10T13:07:47.405Z,2.07
2023-04-10T13:10:49.457Z,1.83
2023-04-10T13:13:52.589Z,2.03
2023-04-10T13:16:54.363Z,2.33
2023-04-10T13:19:56.332Z,2.07
2023-04-10T13:22:58.206Z,1.73
2023-04-10T13:26:00.194Z,1.97
2023-04-10T13:29:02.176Z,2.30
2023-04-10T13:32:05.479Z,1.97
2023-04-10T13:35:07.153Z,1.80
2023-04-10T13:38:11.980Z,2.23
2023-04-10T13:41:13.395Z,1.70
2023-04-10T13:44:15.152Z,2.00
2023-04-10T13:47:17.032Z,2.10
2023-04-10T13:50:19.406Z,1.93
2023-04-10T13:53:20.926Z,1.60
2023-04-10T13:56:22.736Z,1.90
2023-04-10T13:59:24.716Z,2.13
2023-04-10T14:02:26.692Z,2.00
2023-04-10T14:05:28.724Z,1.90
2023-04-10T14:08:30.742Z,1.90
2023-04-10T14:11:32.558Z,2.20
2023-04-10T14:14:34.866Z,2.20
2023-04-10T14:17:36.279Z,1.80
2023-04-10T14:20:38.937Z,1.73
2023-04-10T14:23:41.340Z,1.40
2023-04-10T14:26:43.201Z,1.63
2023-04-10T14:29:54.349Z,1.30
2023-04-10T14:32:57.348Z,1.50
2023-04-10T14:35:59.248Z,1.60
2023-04-10T14:39:00.976Z,1.67
2023-04-10T14:42:03.011Z,1.40
2023-04-10T14:45:06.116Z,1.40
2023-04-10T14:48:09.885Z,1.30
2023-04-10T14:51:12.837Z,1.50
2023-04-10T14:54:15.810Z,1.30
2023-04-10T14:57:17.566Z,1.43
2023-04-10T15:00:19.693Z,1.17
2023-04-10T15:03:24.457Z,1.33
2023-04-10T15:06:28.114Z,1.20
2023-04-10T15:09:30.033Z,1.43
2023-04-10T15:12:31.847Z,1.53
2023-04-10T15:15:33.566Z,1.50
2023-04-10T15:18:35.167Z,1.67
2023-04-10T15:21:36.957Z,2.67
2023-04-10T15:24:49.917Z,2.17
2023-04-10T15:27:55.215Z,2.10
2023-04-10T15:30:57.758Z,2.43
2023-04-10T15:33:59.626Z,2.50
2023-04-10T15:37:01.350Z,2.50
2023-04-10T15:40:04.512Z,2.33
2023-04-10T15:43:06.288Z,2.40
2023-04-10T15:46:08.227Z,2.10
2023-04-10T15:49:09.951Z,4.03
2023-04-10T15:52:11.669Z,2.53
2023-04-10T15:55:14.827Z,2.77
2023-04-10T15:58:16.280Z,2.00
2023-04-10T16:01:18.045Z,2.10
2023-04-10T16:04:20.309Z,2.00
2023-04-10T16:07:22.076Z,1.90
2023-04-10T16:10:23.816Z,1.90
2023-04-10T16:13:25.762Z,1.97
2023-04-10T16:16:29.292Z,2.10
2023-04-10T16:19:31.508Z,3.20
2023-04-10T16:22:33.256Z,2.57
2023-04-10T16:25:34.645Z,2.20
2023-04-10T16:28:36.346Z,2.10
2023-04-10T16:31:38.090Z,2.20
2023-04-10T16:34:39.886Z,1.87
2023-04-10T16:37:41.621Z,2.30
2023-04-10T16:40:43.023Z,2.20
2023-04-10T16:43:44.786Z,1.97
2023-04-10T16:46:46.920Z,2.10
2023-04-10T16:49:48.531Z,2.40
2023-04-10T16:52:50.029Z,2.00
2023-04-10T16:55:58.538Z,2.40
2023-04-10T16:59:00.578Z,2.20
2023-04-10T17:02:02.324Z,2.30
2023-04-10T17:05:04.146Z,2.17
2023-04-10T17:08:06.363Z,2.40
2023-04-10T17:11:08.132Z,2.43
2023-04-10T17:14:10.480Z,2.10
2023-04-10T17:17:13.020Z,2.30
2023-04-10T17:20:15.011Z,2.30
2023-04-10T17:23:16.773Z,2.20
2023-04-10T17:26:19.054Z,2.20
2023-04-10T17:29:20.900Z,2.47
2023-04-10T17:32:22.597Z,2.27
2023-04-10T17:35:25.639Z,2.13
2023-04-10T17:41:28.936Z,2.33
2023-04-10T17:44:30.688Z,2.30
2023-04-10T17:47:32.551Z,2.60
2023-04-10T17:50:35.047Z,2.43
2023-04-10T17:53:36.841Z,2.57
2023-04-10T17:56:38.494Z,5.37
2023-04-10T17:59:39.890Z,5.93
2023-04-10T18:02:42.889Z,4.13
2023-04-10T18:05:44.726Z,3.37
2023-04-10T18:08:46.442Z,3.30
2023-04-10T18:11:50.382Z,3.00
2023-04-10T18:14:51.758Z,2.90
2023-04-10T18:17:54.101Z,2.73
2023-04-10T18:20:55.929Z,2.67
2023-04-10T18:23:57.652Z,2.90
2023-04-10T18:26:59.360Z,2.67
2023-04-10T18:30:01.549Z,2.60
2023-04-10T18:33:05.440Z,3.00
2023-04-10T18:36:08.362Z,2.70
2023-04-10T18:39:10.713Z,2.43
2023-04-10T18:42:12.427Z,2.80
2023-04-10T18:45:14.241Z,3.00
2023-04-10T18:48:16.366Z,3.50
2023-04-10T18:51:17.957Z,3.80
2023-04-10T18:54:19.706Z,3.60
2023-04-10T18:57:21.389Z,3.33
2023-04-10T19:00:22.902Z,3.23
2023-04-10T19:03:24.806Z,3.43
2023-04-10T19:06:26.755Z,2.90
2023-04-10T19:09:28.569Z,2.93
2023-04-10T19:12:30.089Z,2.80
2023-04-10T19:15:31.499Z,3.10
2023-04-10T19:18:33.290Z,2.87
2023-04-10T19:21:35.069Z,3.37
2023-04-10T19:24:36.880Z,3.50
2023-04-10T19:27:38.725Z,3.43
2023-04-10T19:30:40.525Z,3.00
2023-04-10T19:33:42.040Z,3.17
2023-04-10T19:36:43.816Z,3.30
2023-04-10T19:39:45.294Z,4.50
2023-04-10T19:42:47.016Z,5.10
2023-04-10T19:45:48.773Z,3.60
2023-04-10T19:48:51.758Z,4.23
2023-04-10T19:51:53.578Z,3.80
2023-04-10T19:54:55.007Z,3.90
2023-04-10T19:57:56.792Z,4.57
2023-04-10T20:01:03.391Z,3.50
2023-04-10T20:04:05.269Z,4.90
2023-04-10T20:07:07.161Z,4.83
2023-04-10T20:10:09.257Z,3.40
2023-04-10T20:13:11.347Z,3.53
2023-04-10T20:16:13.098Z,3.03
2023-04-10T20:19:15.072Z,2.80
2023-04-10T20:22:16.824Z,3.20
2023-04-10T20:25:18.538Z,2.90
2023-04-10T20:28:20.450Z,2.63
2023-04-10T20:31:22.524Z,3.00
2023-04-10T20:34:24.751Z,3.10
2023-04-10T20:37:26.192Z,3.03
2023-04-10T20:40:27.902Z,2.83
2023-04-10T20:43:29.361Z,2.83
2023-04-10T20:46:31.261Z,2.80
2023-04-10T20:49:32.888Z,2.90
2023-04-10T20:52:34.605Z,3.03
2023-04-10T20:55:39.704Z,3.33
2023-04-10T20:58:41.151Z,2.70
2023-04-10T21:01:42.998Z,2.80
2023-04-10T21:04:44.724Z,2.80
2023-04-10T21:07:46.425Z,2.90
2023-04-10T21:10:48.123Z,2.70
2023-04-10T21:13:49.845Z,2.77
2023-04-10T21:16:51.576Z,2.50
2023-04-10T21:19:53.331Z,3.03
2023-04-10T21:22:55.292Z,2.90
2023-04-10T21:25:57.003Z,3.03
2023-04-10T21:28:58.738Z,2.83
2023-04-10T21:32:00.605Z,3.40
2023-04-10T21:35:02.354Z,3.20
2023-04-10T21:38:04.473Z,3.10
2023-04-10T21:41:06.211Z,3.00
2023-04-10T21:44:07.974Z,3.20
2023-04-10T21:47:09.712Z,3.00
2023-04-10T21:50:11.512Z,2.60
2023-04-10T21:53:13.322Z,2.60
2023-04-10T21:56:15.650Z,2.53
2023-04-10T21:59:17.818Z,2.60
2023-04-10T22:02:19.262Z,2.73
2023-04-10T22:05:21.134Z,2.63
2023-04-10T22:08:22.901Z,2.33
2023-04-10T22:11:24.681Z,2.07
2023-04-10T22:14:26.614Z,1.90
2023-04-10T22:17:28.403Z,2.00
2023-04-10T22:20:30.618Z,2.20
2023-04-10T22:23:32.077Z,2.40
2023-04-10T22:26:34.810Z,2.03
2023-04-10T22:29:36.624Z,1.83
2023-04-10T22:32:38.403Z,2.30
2023-04-10T22:35:40.916Z,2.07
2023-04-10T22:38:42.301Z,1.93
2023-04-10T22:41:43.960Z,2.20
2023-04-10T22:44:46.704Z,1.87
2023-04-10T22:47:48.084Z,1.83
2023-04-10T22:50:49.748Z,1.60
2023-04-10T22:53:51.398Z,2.10
2023-04-10T22:56:53.073Z,1.80
2023-04-10T22:59:55.291Z,1.70
2023-04-10T23:02:56.794Z,1.80
2023-04-10T23:05:58.502Z,1.90
2023-04-10T23:09:00.185Z,1.90
2023-04-10T23:12:01.938Z,2.03
2023-04-10T23:15:05.480Z,2.00
2023-04-10T23:18:07.199Z,2.20
2023-04-10T23:21:08.936Z,2.00
2023-04-10T23:24:10.593Z,2.00
2023-04-10T23:27:12.260Z,2.23
2023-04-10T23:30:14.239Z,2.40
2023-04-10T23:33:15.782Z,2.13
2023-04-10T23:36:17.719Z,2.60
2023-04-10T23:39:20.199Z,1.97
2023-04-10T23:42:21.872Z,2.03
2023-04-10T23:45:23.882Z,2.00
2023-04-10T23:48:25.409Z,1.97
2023-04-10T23:51:27.884Z,2.07
2023-04-10T23:54:29.618Z,2.00
2023-04-10T23:57:31.302Z,2.40
